createdAt,value
2022-09-02T00:00:32.189Z,99822.22
2022-09-02T00:01:40.383Z,99769.69
2022-09-02T00:02:43.349Z,99814.91
2022-09-02T00:03:45.129Z,99825.94
2022-09-02T00:04:46.637Z,99821.41
2022-09-02T00:05:48.219Z,99822.25
2022-09-02T00:06:52.087Z,99836.94
2022-09-02T00:07:54.973Z,99810.50
2022-09-02T00:08:57.034Z,99812.19
2022-09-02T00:09:59.839Z,99820.56
2022-09-02T00:11:03.893Z,99812.66
2022-09-02T00:12:07.937Z,99816.16
2022-09-02T00:13:12.317Z,99812.66
2022-09-02T00:14:20.668Z,99779.53
2022-09-02T00:15:22.913Z,99809.06
2022-09-02T00:16:25.720Z,99801.16
2022-09-02T00:17:28.056Z,99799.31
2022-09-02T00:18:29.998Z,99810.50
2022-09-02T00:19:32.111Z,99773.03
2022-09-02T00:20:33.691Z,99772.50
2022-09-02T00:21:35.778Z,99800.63
2022-09-02T00:22:37.512Z,99796.19
2022-09-02T00:23:40.357Z,99812.28
2022-09-02T00:24:41.945Z,99799.22
2022-09-02T00:25:44.838Z,99807.75
2022-09-02T00:26:47.204Z,99808.72
2022-09-02T00:27:49.171Z,99794.88
2022-09-02T00:28:55.895Z,99800.25
2022-09-02T00:29:58.205Z,99801.94
2022-09-02T00:30:59.729Z,99806.25
2022-09-02T00:32:01.445Z,99783.22
2022-09-02T00:33:03.690Z,99801.00
2022-09-02T00:34:05.574Z,99803.91
2022-09-02T00:35:07.740Z,99789.06
2022-09-02T00:36:09.781Z,99787.47
2022-09-02T00:37:11.376Z,99769.75
2022-09-02T00:38:12.983Z,99785.66
2022-09-02T00:39:14.692Z,99816.53
2022-09-02T00:40:18.626Z,99804.19
2022-09-02T00:41:24.228Z,99799.09
2022-09-02T00:42:26.329Z,99807.00
2022-09-02T00:43:53.048Z,99803.56
2022-09-02T00:44:54.618Z,99797.72
2022-09-02T00:45:56.187Z,99804.38
2022-09-02T00:46:57.765Z,99780.59
2022-09-02T00:47:59.367Z,99806.09
2022-09-02T00:49:25.896Z,99804.09
2022-09-02T00:50:31.083Z,99799.69
2022-09-02T00:51:46.437Z,99807.75
2022-09-02T00:52:53.627Z,99799.41
2022-09-02T00:53:55.418Z,99794.22
2022-09-02T00:55:02.414Z,99799.84
2022-09-02T00:56:04.180Z,99804.59
2022-09-02T00:57:11.965Z,99763.00
2022-09-02T00:58:22.489Z,99796.97
2022-09-02T00:59:34.923Z,99789.53
2022-09-02T01:00:42.555Z,99790.91
2022-09-02T01:01:44.648Z,99768.63
2022-09-02T01:02:52.660Z,99795.91
2022-09-02T01:03:54.304Z,99755.09
2022-09-02T01:04:56.719Z,99796.69
2022-09-02T01:05:59.615Z,99776.19
2022-09-02T01:07:01.171Z,99797.44
2022-09-02T01:08:07.211Z,99797.44
2022-09-02T01:09:14.705Z,99786.97
2022-09-02T01:10:19.911Z,99772.41
2022-09-02T01:11:22.669Z,99764.31
2022-09-02T01:12:26.223Z,99794.22
2022-09-02T01:13:35.272Z,99788.38
2022-09-02T01:14:36.773Z,99790.16
2022-09-02T01:16:02.451Z,99752.00
2022-09-02T01:17:05.201Z,99791.88
2022-09-02T01:18:10.503Z,99789.25
2022-09-02T01:19:23.146Z,99793.66
2022-09-02T01:20:26.317Z,99790.56
2022-09-02T01:21:27.895Z,99794.59
2022-09-02T01:22:31.825Z,99784.00
2022-09-02T01:23:34.750Z,99774.50
2022-09-02T01:24:36.522Z,99791.03
2022-09-02T01:25:38.244Z,99785.19
2022-09-02T01:26:39.912Z,99791.84
2022-09-02T01:27:41.911Z,99765.88
2022-09-02T01:28:43.689Z,99794.59
2022-09-02T01:29:46.316Z,99794.88
2022-09-02T01:30:51.508Z,99794.31
2022-09-02T01:31:53.668Z,99808.69
2022-09-02T01:32:55.797Z,99789.28
2022-09-02T01:33:58.068Z,99800.41
2022-09-02T01:35:00.960Z,99762.31
2022-09-02T01:36:04.593Z,99798.25
2022-09-02T01:37:07.067Z,99797.78
2022-09-02T01:38:08.790Z,99799.13
2022-09-02T01:39:12.251Z,99798.75
2022-09-02T01:40:17.138Z,99798.09
2022-09-02T01:41:18.814Z,99788.38
2022-09-02T01:42:21.531Z,99792.16
2022-09-02T01:43:25.947Z,99797.63
2022-09-02T01:44:27.598Z,99805.69
2022-09-02T01:45:30.138Z,99788.78
2022-09-02T01:46:32.805Z,99769.19
2022-09-02T01:47:36.145Z,99791.78
2022-09-02T01:48:37.839Z,99793.38
2022-09-02T01:49:40.921Z,99789.25
2022-09-02T01:50:47.898Z,99788.38
2022-09-02T01:51:49.742Z,99798.00
2022-09-02T01:52:51.304Z,99792.06
2022-09-02T01:53:52.809Z,99785.19
2022-09-02T01:54:55.069Z,99784.25
2022-09-02T01:55:57.031Z,99791.97
2022-09-02T01:56:58.552Z,99790.56
2022-09-02T01:58:00.720Z,99764.09
2022-09-02T01:59:04.900Z,99787.06
2022-09-02T02:00:09.680Z,99775.22
2022-09-02T02:01:12.058Z,99783.22
2022-09-02T02:02:13.979Z,99782.53
2022-09-02T02:03:16.676Z,99759.66
2022-09-02T02:04:18.291Z,99751.22
2022-09-02T02:05:20.203Z,99780.75
2022-09-02T02:06:21.771Z,99780.84
2022-09-02T02:07:23.733Z,99775.13
2022-09-02T02:08:25.566Z,99756.50
2022-09-02T02:09:27.412Z,99756.09
2022-09-02T02:10:29.499Z,99783.09
2022-09-02T02:11:31.013Z,99770.69
2022-09-02T02:12:32.533Z,99784.50
2022-09-02T02:13:34.317Z,99783.75
2022-09-02T02:14:36.113Z,99764.69
2022-09-02T02:15:39.641Z,99791.22
2022-09-02T02:16:41.376Z,99779.41
2022-09-02T02:17:43.093Z,99783.59
2022-09-02T02:18:44.674Z,99785.31
2022-09-02T02:19:46.182Z,99783.81
2022-09-02T02:20:47.839Z,99777.22
2022-09-02T02:21:49.581Z,99778.91
2022-09-02T02:22:51.134Z,99781.47
2022-09-02T02:23:53.153Z,99787.78
2022-09-02T02:24:54.801Z,99743.16
2022-09-02T02:25:56.346Z,99771.13
2022-09-02T02:26:57.825Z,99774.50
2022-09-02T02:27:59.424Z,99759.38
2022-09-02T02:29:02.040Z,99775.25
2022-09-02T02:30:06.495Z,99777.03
2022-09-02T02:31:08.056Z,99754.75
2022-09-02T02:32:10.098Z,99777.16
2022-09-02T02:33:13.569Z,99755.03
2022-09-02T02:34:15.236Z,99768.50
2022-09-02T02:35:19.071Z,99765.13
2022-09-02T02:36:21.018Z,99752.50
2022-09-02T02:37:25.552Z,99772.81
2022-09-02T02:38:37.885Z,99734.69
2022-09-02T02:39:41.185Z,99764.38
2022-09-02T02:40:42.797Z,99774.19
2022-09-02T02:41:45.107Z,99754.72
2022-09-02T02:42:47.824Z,99778.88
2022-09-02T02:43:49.503Z,99775.69
2022-09-02T02:44:51.105Z,99777.66
2022-09-02T02:45:54.284Z,99754.91
2022-09-02T02:46:55.846Z,99778.16
2022-09-02T02:47:58.291Z,99776.28
2022-09-02T02:49:00.011Z,99768.47
2022-09-02T02:50:01.503Z,99771.53
2022-09-02T02:51:04.434Z,99778.50
2022-09-02T02:52:06.478Z,99784.03
2022-09-02T02:53:08.696Z,99784.25
2022-09-02T02:54:14.502Z,99779.28
2022-09-02T02:55:16.825Z,99778.53
2022-09-02T02:56:18.697Z,99767.09
2022-09-02T02:57:20.341Z,99771.81
2022-09-02T02:58:21.972Z,99773.53
2022-09-02T02:59:23.610Z,99781.56
2022-09-02T03:00:28.589Z,99780.63
2022-09-02T03:01:31.404Z,99781.75
2022-09-02T03:02:33.284Z,99778.34
2022-09-02T03:03:35.121Z,99773.09
2022-09-02T03:04:39.825Z,99776.84
2022-09-02T03:05:41.453Z,99731.34
2022-09-02T03:06:43.012Z,99777.00
2022-09-02T03:07:44.660Z,99775.50
2022-09-02T03:08:48.875Z,99760.41
2022-09-02T03:09:52.650Z,99788.91
2022-09-02T03:10:56.162Z,99787.28
2022-09-02T03:11:58.325Z,99752.53
2022-09-02T03:13:00.962Z,99773.81
2022-09-02T03:14:02.794Z,99771.94
2022-09-02T03:15:05.220Z,99774.84
2022-09-02T03:16:07.147Z,99788.16
2022-09-02T03:17:08.967Z,99753.16
2022-09-02T03:18:10.550Z,99758.97
2022-09-02T03:19:14.142Z,99758.06
2022-09-02T03:20:16.910Z,99776.88
2022-09-02T03:21:19.121Z,99736.34
2022-09-02T03:22:20.727Z,99757.38
2022-09-02T03:23:22.342Z,99765.09
2022-09-02T03:24:24.029Z,99746.25
2022-09-02T03:25:31.205Z,99731.00
2022-09-02T03:26:35.163Z,99758.06
2022-09-02T03:27:38.769Z,99765.50
2022-09-02T03:28:40.469Z,99768.06
2022-09-02T03:29:42.220Z,99772.31
2022-09-02T03:30:45.611Z,99769.84
2022-09-02T03:31:47.200Z,99765.69
2022-09-02T03:32:49.132Z,99741.25
2022-09-02T03:33:51.006Z,99768.38
2022-09-02T03:34:52.530Z,99753.06
2022-09-02T03:35:54.102Z,99721.88
2022-09-02T03:36:55.733Z,99745.09
2022-09-02T03:37:57.456Z,99752.78
2022-09-02T03:38:59.775Z,99771.13
2022-09-02T03:40:07.313Z,99756.72
2022-09-02T03:41:08.891Z,99767.72
2022-09-02T03:42:13.332Z,99771.28
2022-09-02T03:43:21.982Z,99772.81
2022-09-02T03:44:23.645Z,99769.59
2022-09-02T03:45:25.228Z,99766.53
2022-09-02T03:46:27.086Z,99742.97
2022-09-02T03:47:30.064Z,99775.09
2022-09-02T03:48:34.594Z,99769.34
2022-09-02T03:49:36.480Z,99778.03
2022-09-02T03:50:41.079Z,99776.59
2022-09-02T03:51:43.568Z,99728.47
2022-09-02T03:52:45.313Z,99760.03
2022-09-02T03:53:47.055Z,99757.81
2022-09-02T03:54:48.916Z,99764.63
2022-09-02T03:55:50.772Z,99776.66
2022-09-02T03:56:52.705Z,99779.97
2022-09-02T03:57:54.970Z,99758.81
2022-09-02T03:58:57.609Z,99774.97
2022-09-02T04:00:01.863Z,99761.34
2022-09-02T04:01:05.421Z,99754.59
2022-09-02T04:02:07.531Z,99752.97
2022-09-02T04:03:09.216Z,99754.91
2022-09-02T04:04:11.038Z,99769.63
2022-09-02T04:05:15.969Z,99778.06
2022-09-02T04:06:20.843Z,99777.25
2022-09-02T04:07:22.331Z,99756.22
2022-09-02T04:08:24.775Z,99777.50
2022-09-02T04:09:26.473Z,99782.69
2022-09-02T04:10:28.233Z,99777.25
2022-09-02T04:11:30.167Z,99771.25
2022-09-02T04:12:32.366Z,99766.09
2022-09-02T04:13:34.236Z,99778.75
2022-09-02T04:14:35.868Z,99778.66
2022-09-02T04:15:44.334Z,99774.22
2022-09-02T04:17:42.862Z,99778.06
2022-09-02T04:19:41.153Z,99780.13
2022-09-02T04:21:10.886Z,99778.94
2022-09-02T04:22:12.390Z,99748.56
2022-09-02T04:23:13.965Z,99769.28
2022-09-02T04:24:15.592Z,99773.53
2022-09-02T04:25:17.639Z,99761.91
2022-09-02T04:26:20.656Z,99757.31
2022-09-02T04:27:22.443Z,99772.75
2022-09-02T04:28:24.883Z,99764.03
2022-09-02T04:29:26.824Z,99739.44
2022-09-02T04:30:28.445Z,99745.22
2022-09-02T04:31:31.679Z,99754.03
2022-09-02T04:32:38.329Z,99773.44
2022-09-02T04:33:42.132Z,99746.16
2022-09-02T04:34:43.790Z,99742.91
2022-09-02T04:35:49.289Z,99753.09
2022-09-02T04:36:50.846Z,99765.06
2022-09-02T04:37:52.372Z,99732.19
2022-09-02T04:38:54.404Z,99749.09
2022-09-02T04:39:57.815Z,99761.44
2022-09-02T04:40:59.451Z,99762.28
2022-09-02T04:42:01.048Z,99751.56
2022-09-02T04:43:03.772Z,99765.16
2022-09-02T04:44:05.625Z,99743.31
2022-09-02T04:45:08.317Z,99753.19
2022-09-02T04:46:15.403Z,99761.81
2022-09-02T04:47:17.395Z,99776.75
2022-09-02T04:48:19.805Z,99763.69
2022-09-02T04:49:21.424Z,99759.53
2022-09-02T04:50:22.993Z,99775.72
2022-09-02T04:51:26.462Z,99774.13
2022-09-02T04:52:27.995Z,99734.91
2022-09-02T04:53:30.251Z,99768.06
2022-09-02T04:54:32.353Z,99765.78
2022-09-02T04:55:34.141Z,99762.25
2022-09-02T04:56:35.997Z,99768.41
2022-09-02T04:57:37.798Z,99762.16
2022-09-02T04:58:39.499Z,99741.34
2022-09-02T04:59:41.073Z,99748.75
2022-09-02T05:00:43.022Z,99738.50
2022-09-02T05:01:45.097Z,99772.75
2022-09-02T05:02:47.015Z,99734.53
2022-09-02T05:03:49.601Z,99772.88
2022-09-02T05:04:52.421Z,99774.66
2022-09-02T05:06:02.014Z,99773.78
2022-09-02T05:07:03.883Z,99737.16
2022-09-02T05:08:05.399Z,99741.09
2022-09-02T05:09:08.531Z,99758.91
2022-09-02T05:10:12.216Z,99760.53
2022-09-02T05:11:22.154Z,99750.19
2022-09-02T05:12:26.123Z,99734.09
2022-09-02T05:13:28.131Z,99762.69
2022-09-02T05:14:31.078Z,99769.03
2022-09-02T05:15:33.617Z,99769.63
2022-09-02T05:16:40.580Z,99761.81
2022-09-02T05:17:42.692Z,99761.59
2022-09-02T05:18:44.980Z,99737.84
2022-09-02T05:19:46.859Z,99745.69
2022-09-02T05:20:48.357Z,99765.06
2022-09-02T05:21:51.342Z,99764.16
2022-09-02T05:22:52.894Z,99769.47
2022-09-02T05:23:55.129Z,99748.03
2022-09-02T05:24:57.332Z,99767.59
2022-09-02T05:25:58.840Z,99778.94
2022-09-02T05:27:00.373Z,99768.53
2022-09-02T05:28:02.032Z,99748.13
2022-09-02T05:29:08.454Z,99758.38
2022-09-02T05:30:10.444Z,99770.69
2022-09-02T05:31:15.439Z,99775.78
2022-09-02T05:32:17.090Z,99770.44
2022-09-02T05:33:18.604Z,99759.28
2022-09-02T05:34:22.726Z,99734.69
2022-09-02T05:35:24.513Z,99771.06
2022-09-02T05:36:26.079Z,99772.69
2022-09-02T05:37:27.613Z,99747.06
2022-09-02T05:38:29.505Z,99738.72
2022-09-02T05:39:31.198Z,99779.84
2022-09-02T05:40:34.408Z,99745.06
2022-09-02T05:41:36.153Z,99784.88
2022-09-02T05:42:39.571Z,99776.13
2022-09-02T05:43:42.261Z,99775.97
2022-09-02T05:44:47.176Z,99782.34
2022-09-02T05:45:50.869Z,99755.84
2022-09-02T05:46:52.608Z,99785.09
2022-09-02T05:47:54.107Z,99780.59
2022-09-02T05:49:06.322Z,99726.75
2022-09-02T05:50:08.226Z,99786.72
2022-09-02T05:51:09.710Z,99786.38
2022-09-02T05:52:13.482Z,99782.47
2022-09-02T05:53:15.114Z,99765.84
2022-09-02T05:54:35.903Z,99784.44
2022-09-02T05:55:37.532Z,99756.03
2022-09-02T05:56:44.997Z,99759.66
2022-09-02T05:57:46.997Z,99764.81
2022-09-02T05:58:49.528Z,99780.41
2022-09-02T05:59:56.081Z,99750.31
2022-09-02T06:00:58.574Z,99735.97
2022-09-02T06:02:00.352Z,99756.72
2022-09-02T06:03:02.230Z,99741.31
2022-09-02T06:04:05.656Z,99767.53
2022-09-02T06:05:12.019Z,99757.38
2022-09-02T06:06:13.794Z,99760.69
2022-09-02T06:07:16.810Z,99765.72
2022-09-02T06:08:18.413Z,99777.22
2022-09-02T06:09:22.558Z,99761.19
2022-09-02T06:10:24.092Z,99734.38
2022-09-02T06:11:28.254Z,99762.63
2022-09-02T06:12:33.085Z,99755.00
2022-09-02T06:13:37.414Z,99741.31
2022-09-02T06:14:41.799Z,99748.94
2022-09-02T06:15:44.332Z,99742.81
2022-09-02T06:16:46.533Z,99756.47
2022-09-02T06:17:48.031Z,99744.16
2022-09-02T06:18:50.164Z,99769.78
2022-09-02T06:19:53.972Z,99757.81
2022-09-02T06:20:55.913Z,99738.72
2022-09-02T06:21:57.437Z,99762.56
2022-09-02T06:22:58.992Z,99753.22
2022-09-02T06:24:00.654Z,99751.06
2022-09-02T06:25:02.431Z,99750.66
2022-09-02T06:26:04.708Z,99726.41
2022-09-02T06:27:07.307Z,99750.41
2022-09-02T06:28:10.104Z,99757.91
2022-09-02T06:29:12.514Z,99749.84
2022-09-02T06:30:14.078Z,99768.91
2022-09-02T06:31:18.382Z,99753.19
2022-09-02T06:32:21.661Z,99743.03
2022-09-02T06:33:23.722Z,99741.25
2022-09-02T06:34:27.158Z,99729.09
2022-09-02T06:35:28.859Z,99748.38
2022-09-02T06:36:30.914Z,99722.03
2022-09-02T06:37:32.510Z,99749.19
2022-09-02T06:38:39.784Z,99748.94
2022-09-02T06:39:46.111Z,99745.66
2022-09-02T06:40:53.593Z,99758.97
2022-09-02T06:41:55.922Z,99740.78
2022-09-02T06:42:57.468Z,99740.00
2022-09-02T06:44:02.476Z,99751.84
2022-09-02T06:45:04.422Z,99756.50
2022-09-02T06:46:22.922Z,99755.66
2022-09-02T06:47:24.613Z,99748.19
2022-09-02T06:48:26.744Z,99743.44
2022-09-02T06:49:28.749Z,99747.34
2022-09-02T06:50:30.767Z,99763.97
2022-09-02T06:51:35.779Z,99757.63
2022-09-02T06:52:37.894Z,99750.38
2022-09-02T06:53:40.321Z,99749.56
2022-09-02T06:54:41.967Z,99749.22
2022-09-02T06:55:45.471Z,99750.75
2022-09-02T06:56:49.695Z,99747.50
2022-09-02T06:57:51.493Z,99750.50
2022-09-02T06:58:53.418Z,99721.06
2022-09-02T07:00:01.831Z,99749.78
2022-09-02T07:01:04.565Z,99752.97
2022-09-02T07:02:06.204Z,99742.00
2022-09-02T07:03:28.171Z,99749.84
2022-09-02T07:04:48.271Z,99753.16
2022-09-02T07:06:10.777Z,99743.03
2022-09-02T07:07:12.830Z,99731.94
2022-09-02T07:08:14.505Z,99716.56
2022-09-02T07:09:19.830Z,99723.25
2022-09-02T07:10:21.519Z,99727.19
2022-09-02T07:11:24.082Z,99744.63
2022-09-02T07:12:27.318Z,99712.16
2022-09-02T07:13:28.972Z,99720.34
2022-09-02T07:14:30.856Z,99736.03
2022-09-02T07:15:32.711Z,99760.88
2022-09-02T07:16:44.117Z,99740.88
2022-09-02T07:17:45.806Z,99722.28
2022-09-02T07:18:47.474Z,99736.81
2022-09-02T07:19:50.094Z,99742.88
2022-09-02T07:20:51.948Z,99733.16
2022-09-02T07:21:53.814Z,99714.38
2022-09-02T07:22:56.373Z,99723.25
2022-09-02T07:23:59.631Z,99747.38
2022-09-02T07:25:01.209Z,99744.56
2022-09-02T07:26:02.961Z,99750.78
2022-09-02T07:27:05.930Z,99752.78
2022-09-02T07:28:09.017Z,99743.28
2022-09-02T07:29:11.457Z,99733.84
2022-09-02T07:30:13.746Z,99727.38
2022-09-02T07:31:16.493Z,99737.06
2022-09-02T07:32:18.704Z,99735.59
2022-09-02T07:33:21.571Z,99719.44
2022-09-02T07:34:25.988Z,99736.50
2022-09-02T07:35:28.617Z,99741.09
2022-09-02T07:36:30.373Z,99742.75
2022-09-02T07:37:34.639Z,99710.13
2022-09-02T07:38:36.981Z,99707.44
2022-09-02T07:39:38.720Z,99731.50
2022-09-02T07:40:41.647Z,99736.72
2022-09-02T07:41:47.418Z,99726.69
2022-09-02T07:42:50.215Z,99716.25
2022-09-02T07:43:53.016Z,99708.44
2022-09-02T07:44:56.006Z,99726.94
2022-09-02T07:45:58.686Z,99704.09
2022-09-02T07:47:00.325Z,99722.75
2022-09-02T07:48:02.204Z,99714.88
2022-09-02T07:49:09.316Z,99737.78
2022-09-02T07:50:19.617Z,99724.31
2022-09-02T07:51:22.140Z,99723.75
2022-09-02T07:52:23.713Z,99714.13
2022-09-02T07:53:26.242Z,99707.81
2022-09-02T07:54:27.962Z,99736.50
2022-09-02T07:55:31.153Z,99725.59
2022-09-02T07:56:33.109Z,99739.22
2022-09-02T07:57:34.800Z,99724.78
2022-09-02T07:58:37.056Z,99730.75
2022-09-02T07:59:38.685Z,99720.72
2022-09-02T08:00:41.950Z,99728.97
2022-09-02T08:02:45.950Z,99732.50
2022-09-02T08:03:47.566Z,99713.31
2022-09-02T08:04:49.315Z,99730.56
2022-09-02T08:05:51.698Z,99691.69
2022-09-02T08:06:54.698Z,99734.38
2022-09-02T08:07:56.312Z,99713.63
2022-09-02T08:08:58.133Z,99708.72
2022-09-02T08:10:01.039Z,99705.00
2022-09-02T08:11:03.964Z,99731.69
2022-09-02T08:12:06.129Z,99726.63
2022-09-02T08:13:07.951Z,99724.84
2022-09-02T08:14:12.207Z,99730.91
2022-09-02T08:15:15.586Z,99733.09
2022-09-02T08:16:18.941Z,99701.34
2022-09-02T08:17:20.804Z,99734.00
2022-09-02T08:18:22.889Z,99734.66
2022-09-02T08:19:24.925Z,99728.06
2022-09-02T08:20:26.632Z,99727.69
2022-09-02T08:21:28.190Z,99705.31
2022-09-02T08:22:35.156Z,99714.91
2022-09-02T08:23:38.097Z,99710.34
2022-09-02T08:24:39.821Z,99735.59
2022-09-02T08:25:42.411Z,99735.16
2022-09-02T08:26:44.111Z,99735.47
2022-09-02T08:27:46.163Z,99729.94
2022-09-02T08:28:47.805Z,99727.22
2022-09-02T08:29:52.447Z,99711.41
2022-09-02T08:30:55.251Z,99718.66
2022-09-02T08:31:56.944Z,99736.13
2022-09-02T08:32:58.495Z,99728.84
2022-09-02T08:34:03.217Z,99701.97
2022-09-02T08:35:10.772Z,99734.47
2022-09-02T08:36:14.964Z,99733.69
2022-09-02T08:37:19.209Z,99733.25
2022-09-02T08:38:22.343Z,99708.47
2022-09-02T08:39:24.515Z,99701.63
2022-09-02T08:40:36.441Z,99726.19
2022-09-02T08:42:09.339Z,99733.66
2022-09-02T08:43:29.335Z,99703.22
2022-09-02T08:44:34.922Z,99704.63
2022-09-02T08:45:38.853Z,99720.97
2022-09-02T08:46:40.918Z,99675.47
2022-09-02T08:47:47.513Z,99715.59
2022-09-02T08:49:08.258Z,99716.19
2022-09-02T08:50:14.780Z,99708.28
2022-09-02T08:51:24.332Z,99701.38
2022-09-02T08:52:40.200Z,99717.06
2022-09-02T08:54:07.369Z,99710.13
2022-09-02T08:55:25.508Z,99674.91
2022-09-02T08:56:28.268Z,99708.38
2022-09-02T08:57:31.976Z,99721.31
2022-09-02T08:58:39.220Z,99704.66
2022-09-02T09:00:58.011Z,99694.53
2022-09-02T09:02:24.451Z,99710.31
2022-09-02T09:03:38.435Z,99702.66
2022-09-02T09:04:45.791Z,99703.16
2022-09-02T09:06:00.477Z,99712.13
2022-09-02T09:07:27.215Z,99693.91
2022-09-02T09:08:49.324Z,99698.09
2022-09-02T09:10:09.787Z,99699.78
2022-09-02T09:11:25.186Z,99698.31
2022-09-02T09:12:37.713Z,99700.00
2022-09-02T09:14:02.881Z,99701.56
2022-09-02T09:15:25.533Z,99692.75
2022-09-02T09:16:56.193Z,99701.22
2022-09-02T09:18:05.231Z,99705.53
2022-09-02T09:19:27.339Z,99698.06
2022-09-02T09:20:33.051Z,99691.81
2022-09-02T09:21:34.753Z,99714.31
2022-09-02T09:22:39.279Z,99702.22
2022-09-02T09:23:41.625Z,99704.28
2022-09-02T09:24:45.703Z,99684.31
2022-09-02T09:25:49.425Z,99701.81
2022-09-02T09:26:52.920Z,99696.00
2022-09-02T09:27:54.487Z,99702.88
2022-09-02T09:28:56.496Z,99684.28
2022-09-02T09:29:58.040Z,99665.16
2022-09-02T09:31:01.151Z,99697.63
2022-09-02T09:32:05.388Z,99681.19
2022-09-02T09:33:07.315Z,99684.28
2022-09-02T09:34:12.588Z,99676.97
2022-09-02T09:35:17.219Z,99692.88
2022-09-02T09:36:18.775Z,99645.56
2022-09-02T09:37:59.335Z,99693.47
2022-09-02T09:39:16.809Z,99683.84
2022-09-02T09:40:21.375Z,99683.72
2022-09-02T09:41:28.928Z,99670.31
2022-09-02T09:42:36.393Z,99678.59
2022-09-02T09:43:37.950Z,99651.91
2022-09-02T09:44:46.691Z,99684.16
2022-09-02T09:45:51.452Z,99683.41
2022-09-02T09:47:05.667Z,99673.69
2022-09-02T09:48:16.320Z,99682.94
2022-09-02T09:49:26.425Z,99676.19
2022-09-02T09:50:28.369Z,99678.38
2022-09-02T09:51:29.873Z,99666.13
2022-09-02T09:52:51.303Z,99664.22
2022-09-02T09:53:52.924Z,99663.78
2022-09-02T09:55:12.657Z,99664.44
2022-09-02T09:56:21.673Z,99673.63
2022-09-02T09:57:24.554Z,99672.94
2022-09-02T09:58:41.889Z,99667.06
2022-09-02T09:59:47.575Z,99659.44
2022-09-02T10:00:49.438Z,99635.53
2022-09-02T10:01:52.007Z,99641.19
2022-09-02T10:02:58.194Z,99664.22
2022-09-02T10:04:32.249Z,99668.47
2022-09-02T10:05:40.391Z,99657.84
2022-09-02T10:06:43.665Z,99660.97
2022-09-02T10:08:20.696Z,99661.16
2022-09-02T10:09:35.753Z,99647.75
2022-09-02T10:10:37.377Z,99664.00
2022-09-02T10:11:38.920Z,99654.06
2022-09-02T10:12:40.472Z,99659.09
2022-09-02T10:13:42.800Z,99665.00
2022-09-02T10:14:47.173Z,99664.09
2022-09-02T10:16:06.159Z,99658.47
2022-09-02T10:17:26.047Z,99658.28
2022-09-02T10:18:40.199Z,99657.97
2022-09-02T10:19:51.148Z,99652.81
2022-09-02T10:21:14.948Z,99663.47
2022-09-02T10:22:40.039Z,99660.25
2022-09-02T10:23:59.988Z,99665.28
2022-09-02T10:25:18.919Z,99655.47
2022-09-02T10:26:32.114Z,99643.03
2022-09-02T10:27:47.052Z,99653.28
2022-09-02T10:29:07.094Z,99649.69
2022-09-02T10:30:20.064Z,99661.19
2022-09-02T10:31:41.168Z,99641.00
2022-09-02T10:32:54.573Z,99643.06
2022-09-02T10:34:14.259Z,99636.59
2022-09-02T10:35:38.785Z,99632.78
2022-09-02T10:36:49.145Z,99637.22
2022-09-02T10:38:05.672Z,99628.69
2022-09-02T10:39:36.749Z,99623.09
2022-09-02T10:40:56.121Z,99628.16
2022-09-02T10:42:10.519Z,99631.22
2022-09-02T10:43:35.282Z,99628.59
2022-09-02T10:44:59.139Z,99612.63
2022-09-02T10:46:01.354Z,99603.91
2022-09-02T10:47:12.662Z,99598.91
2022-09-02T10:48:51.327Z,99614.00
2022-09-02T10:50:02.023Z,99613.53
2022-09-02T10:51:20.761Z,99615.41
2022-09-02T10:52:40.591Z,99611.72
2022-09-02T10:54:09.598Z,99617.16
2022-09-02T10:55:45.655Z,99620.94
2022-09-02T10:57:05.873Z,99615.97
2022-09-02T10:58:20.629Z,99594.06
2022-09-02T10:59:30.584Z,99586.53
2022-09-02T11:00:36.309Z,99592.72
2022-09-02T11:01:44.942Z,99590.22
2022-09-02T11:03:11.135Z,99618.09
2022-09-02T11:04:27.989Z,99610.41
2022-09-02T11:05:42.200Z,99590.47
2022-09-02T11:07:02.054Z,99593.00
2022-09-02T11:08:11.154Z,99580.06
2022-09-02T11:09:31.130Z,99600.47
2022-09-02T11:10:47.323Z,99604.13
2022-09-02T11:12:00.485Z,99581.31
2022-09-02T11:13:14.478Z,99585.88
2022-09-02T11:14:25.310Z,99611.06
2022-09-02T11:15:50.014Z,99599.72
2022-09-02T11:16:51.683Z,99600.72
2022-09-02T11:18:17.892Z,99589.16
2022-09-02T11:19:39.528Z,99572.47
2022-09-02T11:21:06.942Z,99587.44
2022-09-02T11:22:36.047Z,99588.91
2022-09-02T11:23:52.861Z,99575.13
2022-09-02T11:25:10.476Z,99576.34
2022-09-02T11:26:24.822Z,99574.31
2022-09-02T11:27:45.675Z,99583.13
2022-09-02T11:28:59.745Z,99576.78
2022-09-02T11:30:31.885Z,99587.34
2022-09-02T11:31:42.414Z,99565.16
2022-09-02T11:32:50.543Z,99586.78
2022-09-02T11:34:22.844Z,99584.06
2022-09-02T11:35:27.493Z,99589.03
2022-09-02T11:36:30.976Z,99583.09
2022-09-02T11:37:41.530Z,99587.44
2022-09-02T11:38:50.770Z,99582.19
2022-09-02T11:40:17.072Z,99572.25
2022-09-02T11:41:47.706Z,99571.66
2022-09-02T11:43:21.909Z,99582.28
2022-09-02T11:44:59.226Z,99584.88
2022-09-02T11:46:14.380Z,99598.41
2022-09-02T11:47:26.936Z,99586.38
2022-09-02T11:48:59.618Z,99580.34
2022-09-02T11:50:40.291Z,99582.56
2022-09-02T11:51:58.951Z,99579.91
2022-09-02T11:53:28.407Z,99575.06
2022-09-02T11:54:39.269Z,99573.31
2022-09-02T11:55:47.185Z,99553.63
2022-09-02T11:56:56.875Z,99573.63
2022-09-02T11:57:59.191Z,99580.03
2022-09-02T11:59:00.856Z,99552.72
2022-09-02T12:00:10.731Z,99579.44
2022-09-02T12:01:15.036Z,99574.56
2022-09-02T12:02:34.822Z,99579.66
2022-09-02T12:03:50.127Z,99558.13
2022-09-02T12:05:29.926Z,99575.66
2022-09-02T12:06:32.910Z,99558.13
2022-09-02T12:07:48.005Z,99577.03
2022-09-02T12:08:50.562Z,99579.44
2022-09-02T12:09:55.208Z,99565.28
2022-09-02T12:11:00.426Z,99575.22
2022-09-02T12:12:02.048Z,99571.91
2022-09-02T12:13:04.034Z,99552.91
2022-09-02T12:14:31.775Z,99576.69
2022-09-02T12:15:38.539Z,99566.41
2022-09-02T12:16:59.031Z,99559.94
2022-09-02T12:18:31.802Z,99577.44
2022-09-02T12:19:45.444Z,99577.16
2022-09-02T12:20:51.128Z,99574.66
2022-09-02T12:22:18.050Z,99567.25
2022-09-02T12:23:48.448Z,99571.56
2022-09-02T12:24:53.782Z,99566.25
2022-09-02T12:26:02.766Z,99585.06
2022-09-02T12:27:09.557Z,99570.13
2022-09-02T12:28:19.261Z,99553.19
2022-09-02T12:29:25.803Z,99568.03
2022-09-02T12:31:10.331Z,99555.34
2022-09-02T12:32:12.296Z,99528.41
2022-09-02T12:33:14.521Z,99524.31
2022-09-02T12:34:24.855Z,99557.91
2022-09-02T12:35:50.027Z,99565.03
2022-09-02T12:36:58.831Z,99541.25
2022-09-02T12:38:12.507Z,99537.53
2022-09-02T12:39:23.247Z,99537.50
2022-09-02T12:40:31.358Z,99531.03
2022-09-02T12:41:42.650Z,99531.00
2022-09-02T12:42:46.776Z,99521.09
2022-09-02T12:44:14.425Z,99528.00
2022-09-02T12:45:29.156Z,99510.47
2022-09-02T12:46:43.947Z,99524.00
2022-09-02T12:47:55.263Z,99537.84
2022-09-02T12:49:11.855Z,99489.00
2022-09-02T12:50:32.463Z,99514.91
2022-09-02T12:52:02.382Z,99514.00
2022-09-02T12:53:21.089Z,99515.41
2022-09-02T12:54:41.359Z,99507.28
2022-09-02T12:55:58.051Z,99508.88
2022-09-02T12:56:59.935Z,99501.00
2022-09-02T12:58:19.872Z,99496.91
2022-09-02T12:59:29.360Z,99460.16
2022-09-02T13:00:49.133Z,99459.16
2022-09-02T13:02:10.420Z,99492.81
2022-09-02T13:03:30.857Z,99491.84
2022-09-02T13:05:00.764Z,99488.44
2022-09-02T13:06:17.367Z,99477.03
2022-09-02T13:07:57.035Z,99480.75